sensor_id;sensor_type;location;lat;lon;timestamp;noise_LAeq;noise_LA_min;noise_LA_max;noise_LA01;noise_LA95
72028;Laerm;59781;52.090;5.030;2023-05-14T00:02:18;40.27;37.98;48.07;;
72028;Laerm;59781;52.090;5.030;2023-05-14T00:04:43;40.65;38.08;48.54;;
72028;Laerm;59781;52.090;5.030;2023-05-14T00:07:09;40.09;38.11;46.39;;
72028;Laerm;59781;52.090;5.030;2023-05-14T00:09:36;39.83;37.95;41.85;;
72028;Laerm;59781;52.090;5.030;2023-05-14T00:12:02;39.92;37.87;44.09;;
72028;Laerm;59781;52.090;5.030;2023-05-14T00:14:27;40.08;37.57;43.05;;
72028;Laerm;59781;52.090;5.030;2023-05-14T00:16:53;40.12;37.83;46.92;;
72028;Laerm;59781;52.090;5.030;2023-05-14T00:19:19;40.31;37.83;49.44;;
72028;Laerm;59781;52.090;5.030;2023-05-14T00:21:46;40.03;38.00;52.09;;
72028;Laerm;59781;52.090;5.030;2023-05-14T00:24:12;39.89;37.75;42.13;;
72028;Laerm;59781;52.090;5.030;2023-05-14T00:26:38;40.17;37.77;60.01;;
72028;Laerm;59781;52.090;5.030;2023-05-14T00:29:04;40.16;37.90;44.17;;
72028;Laerm;59781;52.090;5.030;2023-05-14T00:31:29;39.78;38.01;43.03;;
72028;Laerm;59781;52.090;5.030;2023-05-14T00:33:55;39.88;37.77;44.04;;
72028;Laerm;59781;52.090;5.030;2023-05-14T00:36:21;40.47;38.47;44.28;;
72028;Laerm;59781;52.090;5.030;2023-05-14T00:38:48;40.25;38.04;47.32;;
72028;Laerm;59781;52.090;5.030;2023-05-14T00:41:13;40.18;38.11;46.55;;
72028;Laerm;59781;52.090;5.030;2023-05-14T00:43:40;40.11;37.75;48.42;;
72028;Laerm;59781;52.090;5.030;2023-05-14T00:46:06;40.12;37.83;47.08;;
72028;Laerm;59781;52.090;5.030;2023-05-14T00:48:32;40.06;37.99;50.00;;
72028;Laerm;59781;52.090;5.030;2023-05-14T00:50:58;40.08;38.10;44.02;;
72028;Laerm;59781;52.090;5.030;2023-05-14T00:53:25;39.60;37.54;41.54;;
72028;Laerm;59781;52.090;5.030;2023-05-14T00:55:51;39.64;37.73;41.82;;
72028;Laerm;59781;52.090;5.030;2023-05-14T00:58:17;39.94;37.57;46.27;;
72028;Laerm;59781;52.090;5.030;2023-05-14T01:00:44;39.80;37.83;43.66;;
72028;Laerm;59781;52.090;5.030;2023-05-14T01:03:10;39.65;37.43;44.85;;
72028;Laerm;59781;52.090;5.030;2023-05-14T01:06:00;39.41;37.34;42.27;;
72028;Laerm;59781;52.090;5.030;2023-05-14T01:11:28;39.51;37.53;47.44;;
72028;Laerm;59781;52.090;5.030;2023-05-14T01:14:13;39.43;37.51;44.88;;
72028;Laerm;59781;52.090;5.030;2023-05-14T01:16:44;39.38;36.81;42.45;;
72028;Laerm;59781;52.090;5.030;2023-05-14T01:19:34;39.64;37.66;42.61;;
72028;Laerm;59781;52.090;5.030;2023-05-14T01:22:01;39.64;37.70;44.30;;
72028;Laerm;59781;52.090;5.030;2023-05-14T01:24:27;50.29;37.61;65.32;;
72028;Laerm;59781;52.090;5.030;2023-05-14T01:27:06;40.22;37.68;45.04;;
72028;Laerm;59781;52.090;5.030;2023-05-14T01:29:42;39.58;37.33;43.09;;
72028;Laerm;59781;52.090;5.030;2023-05-14T01:32:12;39.58;37.59;42.48;;
72028;Laerm;59781;52.090;5.030;2023-05-14T01:34:40;39.43;37.47;41.48;;
72028;Laerm;59781;52.090;5.030;2023-05-14T01:37:10;39.51;37.52;41.81;;
72028;Laerm;59781;52.090;5.030;2023-05-14T01:39:38;41.80;37.54;51.67;;
72028;Laerm;59781;52.090;5.030;2023-05-14T01:42:07;39.66;37.63;43.91;;
72028;Laerm;59781;52.090;5.030;2023-05-14T01:44:35;39.70;37.47;44.71;;
72028;Laerm;59781;52.090;5.030;2023-05-14T01:47:01;39.35;37.21;41.42;;
72028;Laerm;59781;52.090;5.030;2023-05-14T01:49:26;39.41;37.42;41.73;;
72028;Laerm;59781;52.090;5.030;2023-05-14T01:51:52;39.39;37.58;40.99;;
72028;Laerm;59781;52.090;5.030;2023-05-14T01:54:18;39.34;37.50;41.06;;
72028;Laerm;59781;52.090;5.030;2023-05-14T01:56:44;39.52;37.35;60.23;;
72028;Laerm;59781;52.090;5.030;2023-05-14T01:59:10;39.45;37.71;42.48;;
72028;Laerm;59781;52.090;5.030;2023-05-14T02:01:35;39.96;37.46;50.18;;
72028;Laerm;59781;52.090;5.030;2023-05-14T02:04:01;39.72;37.65;43.38;;
72028;Laerm;59781;52.090;5.030;2023-05-14T02:06:29;39.82;37.70;42.69;;
72028;Laerm;59781;52.090;5.030;2023-05-14T02:08:56;39.54;37.64;43.21;;
72028;Laerm;59781;52.090;5.030;2023-05-14T02:11:22;39.63;37.56;43.91;;
72028;Laerm;59781;52.090;5.030;2023-05-14T02:13:48;39.95;37.76;43.04;;
72028;Laerm;59781;52.090;5.030;2023-05-14T02:16:13;39.68;37.65;44.81;;
72028;Laerm;59781;52.090;5.030;2023-05-14T02:18:39;39.41;37.52;41.25;;
72028;Laerm;59781;52.090;5.030;2023-05-14T02:21:05;39.69;37.17;43.86;;
72028;Laerm;59781;52.090;5.030;2023-05-14T02:23:31;39.38;37.72;41.08;;
72028;Laerm;59781;52.090;5.030;2023-05-14T02:25:56;39.52;37.53;44.96;;
72028;Laerm;59781;52.090;5.030;2023-05-14T02:28:22;40.87;37.60;49.50;;
72028;Laerm;59781;52.090;5.030;2023-05-14T02:30:48;39.56;37.42;42.84;;
72028;Laerm;59781;52.090;5.030;2023-05-14T02:33:13;39.82;37.42;46.22;;
72028;Laerm;59781;52.090;5.030;2023-05-14T02:35:39;39.63;37.72;44.62;;
72028;Laerm;59781;52.090;5.030;2023-05-14T02:38:05;39.76;37.71;43.94;;
72028;Laerm;59781;52.090;5.030;2023-05-14T02:40:31;39.51;37.86;42.13;;
72028;Laerm;59781;52.090;5.030;2023-05-14T02:42:56;39.51;37.76;48.87;;
72028;Laerm;59781;52.090;5.030;2023-05-14T02:45:22;39.65;37.58;43.25;;
72028;Laerm;59781;52.090;5.030;2023-05-14T02:47:47;39.48;37.66;41.51;;
72028;Laerm;59781;52.090;5.030;2023-05-14T02:50:14;39.52;37.50;41.34;;
72028;Laerm;59781;52.090;5.030;2023-05-14T02:52:40;39.67;37.66;41.99;;
72028;Laerm;59781;52.090;5.030;2023-05-14T02:55:06;39.87;37.83;43.23;;
72028;Laerm;59781;52.090;5.030;2023-05-14T02:57:32;40.03;38.01;44.59;;
72028;Laerm;59781;52.090;5.030;2023-05-14T02:59:58;42.52;37.94;56.97;;
72028;Laerm;59781;52.090;5.030;2023-05-14T03:02:24;42.11;37.87;55.24;;
72028;Laerm;59781;52.090;5.030;2023-05-14T03:04:49;42.04;38.02;57.50;;
72028;Laerm;59781;52.090;5.030;2023-05-14T03:07:15;52.97;38.00;73.64;;
72028;Laerm;59781;52.090;5.030;2023-05-14T03:09:41;51.81;38.28;70.46;;
72028;Laerm;59781;52.090;5.030;2023-05-14T03:12:07;50.27;38.02;66.53;;
72028;Laerm;59781;52.090;5.030;2023-05-14T03:14:33;51.96;38.13;66.67;;
72028;Laerm;59781;52.090;5.030;2023-05-14T03:16:58;51.74;38.14;67.37;;
72028;Laerm;59781;52.090;5.030;2023-05-14T03:19:24;49.46;37.72;67.36;;
72028;Laerm;59781;52.090;5.030;2023-05-14T03:21:50;43.45;38.07;69.58;;
72028;Laerm;59781;52.090;5.030;2023-05-14T03:24:16;39.87;38.06;46.50;;
72028;Laerm;59781;52.090;5.030;2023-05-14T03:26:43;40.54;37.78;54.84;;
72028;Laerm;59781;52.090;5.030;2023-05-14T03:29:08;39.81;37.78;53.51;;
72028;Laerm;59781;52.090;5.030;2023-05-14T03:31:35;39.95;37.68;51.94;;
72028;Laerm;59781;52.090;5.030;2023-05-14T03:34:01;39.75;37.46;44.85;;
72028;Laerm;59781;52.090;5.030;2023-05-14T03:36:27;39.77;37.39;44.81;;
72028;Laerm;59781;52.090;5.030;2023-05-14T03:38:53;41.89;37.87;51.82;;
72028;Laerm;59781;52.090;5.030;2023-05-14T03:41:19;39.88;37.98;49.39;;
72028;Laerm;59781;52.090;5.030;2023-05-14T03:43:46;39.76;37.79;44.24;;
72028;Laerm;59781;52.090;5.030;2023-05-14T03:46:12;39.80;37.38;43.75;;
72028;Laerm;59781;52.090;5.030;2023-05-14T03:48:37;40.09;37.55;50.83;;
72028;Laerm;59781;52.090;5.030;2023-05-14T03:51:04;40.16;37.53;49.94;;
72028;Laerm;59781;52.090;5.030;2023-05-14T03:53:29;39.82;37.41;57.12;;
72028;Laerm;59781;52.090;5.030;2023-05-14T03:55:55;39.73;37.63;44.43;;
72028;Laerm;59781;52.090;5.030;2023-05-14T03:58:21;40.07;37.65;51.31;;
72028;Laerm;59781;52.090;5.030;2023-05-14T04:00:47;40.17;37.97;50.97;;
72028;Laerm;59781;52.090;5.030;2023-05-14T04:03:12;39.77;37.71;43.91;;
72028;Laerm;59781;52.090;5.030;2023-05-14T04:05:38;40.41;37.71;50.73;;
72028;Laerm;59781;52.090;5.030;2023-05-14T04:08:04;40.98;37.53;49.47;;
72028;Laerm;59781;52.090;5.030;2023-05-14T04:10:30;40.10;37.66;55.35;;
72028;Laerm;59781;52.090;5.030;2023-05-14T04:12:58;40.29;37.82;51.84;;
72028;Laerm;59781;52.090;5.030;2023-05-14T04:15:28;39.60;37.48;46.33;;
72028;Laerm;59781;52.090;5.030;2023-05-14T04:17:54;43.75;37.82;71.78;;
72028;Laerm;59781;52.090;5.030;2023-05-14T04:20:20;44.46;37.70;67.58;;
72028;Laerm;59781;52.090;5.030;2023-05-14T04:22:45;40.24;37.97;61.04;;
72028;Laerm;59781;52.090;5.030;2023-05-14T04:25:11;40.50;37.78;54.26;;
72028;Laerm;59781;52.090;5.030;2023-05-14T04:27:37;40.52;37.21;55.62;;
72028;Laerm;59781;52.090;5.030;2023-05-14T04:30:03;39.85;37.85;43.82;;
72028;Laerm;59781;52.090;5.030;2023-05-14T04:32:29;39.75;37.82;48.88;;
72028;Laerm;59781;52.090;5.030;2023-05-14T04:34:54;39.93;37.59;49.43;;
72028;Laerm;59781;52.090;5.030;2023-05-14T04:37:20;43.02;37.56;52.93;;
72028;Laerm;59781;52.090;5.030;2023-05-14T04:39:46;40.11;37.63;50.14;;
72028;Laerm;59781;52.090;5.030;2023-05-14T04:42:12;41.61;37.30;60.70;;
72028;Laerm;59781;52.090;5.030;2023-05-14T04:44:38;42.32;37.76;58.90;;
72028;Laerm;59781;52.090;5.030;2023-05-14T04:47:04;43.69;37.62;66.79;;
72028;Laerm;59781;52.090;5.030;2023-05-14T04:49:31;40.69;37.45;51.35;;
72028;Laerm;59781;52.090;5.030;2023-05-14T04:51:58;39.93;37.83;47.44;;
72028;Laerm;59781;52.090;5.030;2023-05-14T04:54:23;39.72;37.61;48.40;;
72028;Laerm;59781;52.090;5.030;2023-05-14T04:56:49;40.03;37.69;53.03;;
72028;Laerm;59781;52.090;5.030;2023-05-14T04:59:15;43.12;37.73;60.89;;
72028;Laerm;59781;52.090;5.030;2023-05-14T05:01:41;45.67;37.75;65.84;;
72028;Laerm;59781;52.090;5.030;2023-05-14T05:04:06;39.88;37.77;43.39;;
72028;Laerm;59781;52.090;5.030;2023-05-14T05:06:32;40.03;37.80;45.35;;
72028;Laerm;59781;52.090;5.030;2023-05-14T05:08:58;40.54;37.51;62.06;;
72028;Laerm;59781;52.090;5.030;2023-05-14T05:11:24;42.78;38.06;53.52;;
72028;Laerm;59781;52.090;5.030;2023-05-14T05:13:49;41.73;37.81;50.52;;
72028;Laerm;59781;52.090;5.030;2023-05-14T05:16:15;40.28;37.90;47.81;;
72028;Laerm;59781;52.090;5.030;2023-05-14T05:18:41;39.60;37.51;42.08;;
72028;Laerm;59781;52.090;5.030;2023-05-14T05:21:06;39.59;38.04;45.53;;
72028;Laerm;59781;52.090;5.030;2023-05-14T05:23:32;45.69;38.01;60.59;;
72028;Laerm;59781;52.090;5.030;2023-05-14T05:25:58;40.98;37.83;51.98;;
72028;Laerm;59781;52.090;5.030;2023-05-14T05:28:23;40.51;37.87;53.09;;
72028;Laerm;59781;52.090;5.030;2023-05-14T05:30:49;41.56;37.60;63.28;;
72028;Laerm;59781;52.090;5.030;2023-05-14T05:33:15;39.79;37.79;46.58;;
72028;Laerm;59781;52.090;5.030;2023-05-14T05:35:40;39.84;37.80;43.56;;
72028;Laerm;59781;52.090;5.030;2023-05-14T05:38:07;40.00;38.18;43.57;;
72028;Laerm;59781;52.090;5.030;2023-05-14T05:40:33;42.59;38.21;53.47;;
72028;Laerm;59781;52.090;5.030;2023-05-14T05:42:59;39.93;37.73;49.71;;
72028;Laerm;59781;52.090;5.030;2023-05-14T05:45:24;40.50;37.63;49.28;;
72028;Laerm;59781;52.090;5.030;2023-05-14T05:47:50;40.41;38.00;59.59;;
72028;Laerm;59781;52.090;5.030;2023-05-14T05:50:16;39.98;37.59;53.82;;
72028;Laerm;59781;52.090;5.030;2023-05-14T05:52:42;49.35;38.30;63.47;;
72028;Laerm;59781;52.090;5.030;2023-05-14T05:55:08;40.85;37.79;62.15;;
72028;Laerm;59781;52.090;5.030;2023-05-14T05:57:34;40.19;37.87;44.93;;
72028;Laerm;59781;52.090;5.030;2023-05-14T06:00:00;40.60;38.13;51.80;;
72028;Laerm;59781;52.090;5.030;2023-05-14T06:02:42;39.96;37.79;46.31;;
72028;Laerm;59781;52.090;5.030;2023-05-14T06:05:09;40.14;37.38;50.46;;
72028;Laerm;59781;52.090;5.030;2023-05-14T06:07:35;39.84;37.72;54.49;;
72028;Laerm;59781;52.090;5.030;2023-05-14T06:10:02;40.52;37.82;56.18;;
72028;Laerm;59781;52.090;5.030;2023-05-14T06:12:27;40.02;37.60;51.08;;
72028;Laerm;59781;52.090;5.030;2023-05-14T06:14:54;40.48;37.66;52.87;;
72028;Laerm;59781;52.090;5.030;2023-05-14T06:17:20;40.06;37.21;52.26;;
72028;Laerm;59781;52.090;5.030;2023-05-14T06:19:46;40.08;37.90;47.70;;
72028;Laerm;59781;52.090;5.030;2023-05-14T06:22:12;40.07;37.59;45.86;;
72028;Laerm;59781;52.090;5.030;2023-05-14T06:24:39;40.22;37.71;46.45;;
72028;Laerm;59781;52.090;5.030;2023-05-14T06:27:05;43.06;38.05;61.96;;
72028;Laerm;59781;52.090;5.030;2023-05-14T06:29:30;45.49;37.98;67.56;;
72028;Laerm;59781;52.090;5.030;2023-05-14T06:32:01;41.06;37.91;62.06;;
72028;Laerm;59781;52.090;5.030;2023-05-14T06:34:28;39.93;37.89;45.32;;
72028;Laerm;59781;52.090;5.030;2023-05-14T06:36:54;40.51;37.86;48.91;;
72028;Laerm;59781;52.090;5.030;2023-05-14T06:39:20;40.39;37.74;46.58;;
72028;Laerm;59781;52.090;5.030;2023-05-14T06:41:45;40.41;37.68;50.62;;
72028;Laerm;59781;52.090;5.030;2023-05-14T06:44:17;55.71;37.24;81.46;;
72028;Laerm;59781;52.090;5.030;2023-05-14T06:46:42;55.25;38.31;86.84;;
72028;Laerm;59781;52.090;5.030;2023-05-14T06:49:08;43.59;38.53;69.24;;
72028;Laerm;59781;52.090;5.030;2023-05-14T06:51:34;45.21;38.08;58.57;;
72028;Laerm;59781;52.090;5.030;2023-05-14T06:53:59;41.01;38.26;44.54;;
72028;Laerm;59781;52.090;5.030;2023-05-14T06:56:25;40.55;38.20;47.31;;
72028;Laerm;59781;52.090;5.030;2023-05-14T06:58:51;46.54;38.17;61.39;;
72028;Laerm;59781;52.090;5.030;2023-05-14T07:01:17;46.73;38.47;63.67;;
72028;Laerm;59781;52.090;5.030;2023-05-14T07:03:42;43.08;38.20;54.58;;
72028;Laerm;59781;52.090;5.030;2023-05-14T07:06:08;52.07;40.11;64.41;;
72028;Laerm;59781;52.090;5.030;2023-05-14T07:08:34;52.22;38.66;67.71;;
72028;Laerm;59781;52.090;5.030;2023-05-14T07:11:00;40.65;37.87;54.02;;
72028;Laerm;59781;52.090;5.030;2023-05-14T07:13:26;42.77;37.35;57.13;;
72028;Laerm;59781;52.090;5.030;2023-05-14T07:15:53;47.37;37.78;65.24;;
72028;Laerm;59781;52.090;5.030;2023-05-14T07:18:21;40.83;38.22;52.43;;
72028;Laerm;59781;52.090;5.030;2023-05-14T07:20:47;42.45;38.58;59.21;;
72028;Laerm;59781;52.090;5.030;2023-05-14T07:23:13;41.34;38.58;55.08;;
72028;Laerm;59781;52.090;5.030;2023-05-14T07:25:39;41.30;38.28;53.41;;
72028;Laerm;59781;52.090;5.030;2023-05-14T07:28:05;48.14;38.17;66.62;;
72028;Laerm;59781;52.090;5.030;2023-05-14T07:30:30;40.94;38.54;51.41;;
72028;Laerm;59781;52.090;5.030;2023-05-14T07:32:56;41.35;38.32;49.69;;
72028;Laerm;59781;52.090;5.030;2023-05-14T07:35:22;42.06;38.56;59.22;;
72028;Laerm;59781;52.090;5.030;2023-05-14T07:37:48;41.68;38.98;62.04;;
72028;Laerm;59781;52.090;5.030;2023-05-14T07:40:14;43.51;38.86;63.62;;
72028;Laerm;59781;52.090;5.030;2023-05-14T07:42:39;41.91;39.21;50.52;;
72028;Laerm;59781;52.090;5.030;2023-05-14T07:45:06;42.37;39.47;51.05;;
72028;Laerm;59781;52.090;5.030;2023-05-14T07:47:32;42.70;39.74;49.49;;
72028;Laerm;59781;52.090;5.030;2023-05-14T07:49:58;50.16;39.35;66.00;;
72028;Laerm;59781;52.090;5.030;2023-05-14T07:52:23;44.23;39.76;54.13;;
72028;Laerm;59781;52.090;5.030;2023-05-14T07:54:50;51.02;39.29;62.99;;
72028;Laerm;59781;52.090;5.030;2023-05-14T07:57:17;51.43;39.76;64.19;;
72028;Laerm;59781;52.090;5.030;2023-05-14T07:59:43;42.80;39.24;61.41;;
72028;Laerm;59781;52.090;5.030;2023-05-14T08:02:09;42.30;39.15;60.61;;
72028;Laerm;59781;52.090;5.030;2023-05-14T08:04:38;46.35;38.91;73.06;;
72028;Laerm;59781;52.090;5.030;2023-05-14T08:07:04;51.08;39.02;72.98;;
72028;Laerm;59781;52.090;5.030;2023-05-14T08:09:30;47.63;39.01;61.63;;
72028;Laerm;59781;52.090;5.030;2023-05-14T08:11:55;42.36;38.85;56.21;;
72028;Laerm;59781;52.090;5.030;2023-05-14T08:14:22;50.25;39.66;61.59;;
72028;Laerm;59781;52.090;5.030;2023-05-14T08:16:47;51.08;39.59;65.43;;
72028;Laerm;59781;52.090;5.030;2023-05-14T08:19:14;42.71;39.27;52.67;;
72028;Laerm;59781;52.090;5.030;2023-05-14T08:21:40;42.00;38.08;48.98;;
72028;Laerm;59781;52.090;5.030;2023-05-14T08:24:06;41.99;38.84;56.70;;
72028;Laerm;59781;52.090;5.030;2023-05-14T08:26:32;42.63;38.84;54.94;;
72028;Laerm;59781;52.090;5.030;2023-05-14T08:28:57;44.55;39.07;72.12;;
72028;Laerm;59781;52.090;5.030;2023-05-14T08:31:23;42.41;39.20;60.81;;
72028;Laerm;59781;52.090;5.030;2023-05-14T08:33:49;42.37;38.84;50.47;;
72028;Laerm;59781;52.090;5.030;2023-05-14T08:36:15;42.92;38.63;62.85;;
72028;Laerm;59781;52.090;5.030;2023-05-14T08:38:40;42.87;39.07;57.52;;
72028;Laerm;59781;52.090;5.030;2023-05-14T08:41:07;43.39;38.39;60.02;;
72028;Laerm;59781;52.090;5.030;2023-05-14T08:44:19;54.67;38.64;73.04;;
72028;Laerm;59781;52.090;5.030;2023-05-14T08:46:52;49.57;39.18;64.00;;
72028;Laerm;59781;52.090;5.030;2023-05-14T08:49:40;43.87;39.75;66.77;;
72028;Laerm;59781;52.090;5.030;2023-05-14T08:52:11;49.09;39.82;62.16;;
72028;Laerm;59781;52.090;5.030;2023-05-14T08:54:38;42.72;39.22;52.74;;
72028;Laerm;59781;52.090;5.030;2023-05-14T08:57:08;44.34;39.01;60.35;;
72028;Laerm;59781;52.090;5.030;2023-05-14T08:59:34;44.75;39.92;73.17;;
72028;Laerm;59781;52.090;5.030;2023-05-14T09:02:04;51.19;39.54;85.51;;
72028;Laerm;59781;52.090;5.030;2023-05-14T09:04:31;44.22;38.63;68.19;;
72028;Laerm;59781;52.090;5.030;2023-05-14T09:07:01;49.99;39.13;70.84;;
72028;Laerm;59781;52.090;5.030;2023-05-14T09:09:27;51.44;39.53;72.51;;
72028;Laerm;59781;52.090;5.030;2023-05-14T09:11:53;44.18;39.16;58.88;;
72028;Laerm;59781;52.090;5.030;2023-05-14T09:14:21;44.56;39.12;61.38;;
72028;Laerm;59781;52.090;5.030;2023-05-14T09:16:50;44.76;39.16;66.17;;
72028;Laerm;59781;52.090;5.030;2023-05-14T09:19:17;44.32;39.04;62.13;;
72028;Laerm;59781;52.090;5.030;2023-05-14T09:21:48;46.60;38.87;70.04;;
72028;Laerm;59781;52.090;5.030;2023-05-14T09:24:23;46.71;39.45;61.34;;
72028;Laerm;59781;52.090;5.030;2023-05-14T09:26:52;50.79;39.17;64.46;;
72028;Laerm;59781;52.090;5.030;2023-05-14T09:29:18;47.55;39.04;66.81;;
72028;Laerm;59781;52.090;5.030;2023-05-14T09:31:44;49.73;38.84;72.01;;
72028;Laerm;59781;52.090;5.030;2023-05-14T09:34:10;46.14;39.27;64.83;;
72028;Laerm;59781;52.090;5.030;2023-05-14T09:36:36;43.53;38.31;57.25;;
72028;Laerm;59781;52.090;5.030;2023-05-14T09:39:04;43.80;38.49;53.58;;
72028;Laerm;59781;52.090;5.030;2023-05-14T09:41:30;44.55;38.69;65.40;;
72028;Laerm;59781;52.090;5.030;2023-05-14T09:43:56;56.82;39.23;84.21;;
72028;Laerm;59781;52.090;5.030;2023-05-14T09:46:23;49.21;39.22;72.26;;
72028;Laerm;59781;52.090;5.030;2023-05-14T09:48:49;47.18;39.10;67.53;;
72028;Laerm;59781;52.090;5.030;2023-05-14T09:51:15;53.55;39.52;80.78;;
72028;Laerm;59781;52.090;5.030;2023-05-14T09:53:45;47.71;38.36;68.98;;
72028;Laerm;59781;52.090;5.030;2023-05-14T09:56:11;47.30;38.92;68.25;;
72028;Laerm;59781;52.090;5.030;2023-05-14T09:58:37;43.73;38.60;60.65;;
72028;Laerm;59781;52.090;5.030;2023-05-14T10:01:04;43.65;38.90;58.08;;
72028;Laerm;59781;52.090;5.030;2023-05-14T10:03:31;48.77;38.95;77.28;;
72028;Laerm;59781;52.090;5.030;2023-05-14T10:06:03;46.48;38.21;69.21;;
72028;Laerm;59781;52.090;5.030;2023-05-14T10:08:34;46.71;38.12;62.79;;
72028;Laerm;59781;52.090;5.030;2023-05-14T10:11:18;45.18;38.16;64.29;;
72028;Laerm;59781;52.090;5.030;2023-05-14T10:16:43;43.85;38.87;55.74;;
72028;Laerm;59781;52.090;5.030;2023-05-14T10:19:11;43.82;38.74;67.72;;
72028;Laerm;59781;52.090;5.030;2023-05-14T10:21:46;43.91;38.96;63.96;;
72028;Laerm;59781;52.090;5.030;2023-05-14T10:24:14;46.66;38.28;72.43;;
72028;Laerm;59781;52.090;5.030;2023-05-14T10:26:41;48.72;38.94;72.21;;
72028;Laerm;59781;52.090;5.030;2023-05-14T10:29:11;48.40;38.57;69.35;;
72028;Laerm;59781;52.090;5.030;2023-05-14T10:31:53;44.48;38.67;71.71;;
72028;Laerm;59781;52.090;5.030;2023-05-14T10:34:40;45.85;38.84;59.92;;
72028;Laerm;59781;52.090;5.030;2023-05-14T10:42:33;43.07;38.64;55.16;;
72028;Laerm;59781;52.090;5.030;2023-05-14T10:45:04;47.19;39.11;58.83;;
72028;Laerm;59781;52.090;5.030;2023-05-14T10:47:36;43.23;39.32;59.14;;
72028;Laerm;59781;52.090;5.030;2023-05-14T10:50:06;51.36;38.87;72.69;;
72028;Laerm;59781;52.090;5.030;2023-05-14T10:52:33;43.85;38.58;61.88;;
72028;Laerm;59781;52.090;5.030;2023-05-14T10:55:02;44.57;38.72;63.31;;
72028;Laerm;59781;52.090;5.030;2023-05-14T10:57:34;49.88;38.24;63.26;;
72028;Laerm;59781;52.090;5.030;2023-05-14T11:00:01;51.68;38.57;81.70;;
72028;Laerm;59781;52.090;5.030;2023-05-14T11:02:31;49.28;39.22;68.12;;
72028;Laerm;59781;52.090;5.030;2023-05-14T11:05:12;47.68;38.94;79.27;;
72028;Laerm;59781;52.090;5.030;2023-05-14T11:07:48;45.32;37.98;77.01;;
72028;Laerm;59781;52.090;5.030;2023-05-14T11:10:19;41.01;38.19;45.95;;
72028;Laerm;59781;52.090;5.030;2023-05-14T11:12:49;44.63;38.75;67.47;;
72028;Laerm;59781;52.090;5.030;2023-05-14T11:15:20;51.85;39.07;82.65;;
72028;Laerm;59781;52.090;5.030;2023-05-14T11:17:47;54.81;38.36;83.74;;
72028;Laerm;59781;52.090;5.030;2023-05-14T11:20:15;53.50;39.59;85.51;;
72028;Laerm;59781;52.090;5.030;2023-05-14T11:22:45;66.84;40.37;88.52;;
72028;Laerm;59781;52.090;5.030;2023-05-14T11:25:13;62.28;40.54;88.52;;
72028;Laerm;59781;52.090;5.030;2023-05-14T11:27:42;52.09;39.70;85.51;;
72028;Laerm;59781;52.090;5.030;2023-05-14T11:30:14;49.60;38.14;82.20;;
72028;Laerm;59781;52.090;5.030;2023-05-14T11:32:42;46.12;38.22;70.29;;
72028;Laerm;59781;52.090;5.030;2023-05-14T11:35:08;45.05;39.22;54.00;;
72028;Laerm;59781;52.090;5.030;2023-05-14T11:37:34;57.93;38.50;85.51;;
72028;Laerm;59781;52.090;5.030;2023-05-14T11:40:00;63.05;38.20;88.52;;
72028;Laerm;59781;52.090;5.030;2023-05-14T11:42:26;68.22;38.44;88.59;;
72028;Laerm;59781;52.090;5.030;2023-05-14T11:44:52;71.30;38.61;92.51;;
72028;Laerm;59781;52.090;5.030;2023-05-14T11:47:21;82.15;38.97;102.56;;
72028;Laerm;59781;52.090;5.030;2023-05-14T11:49:48;77.66;39.35;94.31;;
72028;Laerm;59781;52.090;5.030;2023-05-14T11:52:15;82.53;38.41;100.16;;
72028;Laerm;59781;52.090;5.030;2023-05-14T11:54:44;95.79;39.05;106.44;;
72028;Laerm;59781;52.090;5.030;2023-05-14T11:57:13;90.96;39.02;105.85;;
72028;Laerm;59781;52.090;5.030;2023-05-14T11:59:40;98.31;38.06;107.07;;
72028;Laerm;59781;52.090;5.030;2023-05-14T12:02:14;101.42;40.19;108.02;;
72028;Laerm;59781;52.090;5.030;2023-05-14T12:04:49;101.67;40.44;107.46;;
72028;Laerm;59781;52.090;5.030;2023-05-14T12:07:16;101.80;40.84;107.53;;
72028;Laerm;59781;52.090;5.030;2023-05-14T12:09:48;104.46;85.51;108.60;;
72028;Laerm;59781;52.090;5.030;2023-05-14T12:12:24;104.53;88.52;109.00;;
72028;Laerm;59781;52.090;5.030;2023-05-14T12:14:50;101.79;57.13;107.41;;
72028;Laerm;59781;52.090;5.030;2023-05-14T12:17:19;104.07;88.49;107.59;;
72028;Laerm;59781;52.090;5.030;2023-05-14T12:19:50;103.66;39.52;108.11;;
72028;Laerm;59781;52.090;5.030;2023-05-14T12:22:20;100.07;39.14;107.54;;
72028;Laerm;59781;52.090;5.030;2023-05-14T12:24:58;104.36;40.05;107.88;;
72028;Laerm;59781;52.090;5.030;2023-05-14T12:27:27;103.95;39.02;107.64;;
72028;Laerm;59781;52.090;5.030;2023-05-14T12:30:04;104.26;85.50;107.53;;
72028;Laerm;59781;52.090;5.030;2023-05-14T12:32:37;104.26;94.40;107.41;;
72028;Laerm;59781;52.090;5.030;2023-05-14T12:35:04;103.61;92.00;107.45;;
72028;Laerm;59781;52.090;5.030;2023-05-14T12:37:32;102.15;90.59;105.70;;
72028;Laerm;59781;52.090;5.030;2023-05-14T12:39:59;101.00;83.28;104.93;;
72028;Laerm;59781;52.090;5.030;2023-05-14T12:42:25;102.18;53.09;105.67;;
72028;Laerm;59781;52.090;5.030;2023-05-14T12:44:51;103.50;94.90;107.15;;
72028;Laerm;59781;52.090;5.030;2023-05-14T12:47:18;103.81;94.18;107.24;;
72028;Laerm;59781;52.090;5.030;2023-05-14T12:49:43;101.82;80.46;106.04;;
72028;Laerm;59781;52.090;5.030;2023-05-14T12:52:09;102.69;86.54;106.84;;
72028;Laerm;59781;52.090;5.030;2023-05-14T12:54:35;97.48;40.52;104.16;;
72028;Laerm;59781;52.090;5.030;2023-05-14T12:57:02;98.44;41.31;105.46;;
72028;Laerm;59781;52.090;5.030;2023-05-14T12:59:28;98.70;40.37;105.58;;
72028;Laerm;59781;52.090;5.030;2023-05-14T13:01:54;99.64;39.53;104.89;;
72028;Laerm;59781;52.090;5.030;2023-05-14T13:04:19;99.95;39.01;105.32;;
72028;Laerm;59781;52.090;5.030;2023-05-14T13:06:46;102.14;84.33;105.79;;
72028;Laerm;59781;52.090;5.030;2023-05-14T13:09:11;100.20;39.46;105.49;;
72028;Laerm;59781;52.090;5.030;2023-05-14T13:11:37;90.57;37.50;101.17;;
72028;Laerm;59781;52.090;5.030;2023-05-14T13:14:03;94.62;38.93;101.71;;
72028;Laerm;59781;52.090;5.030;2023-05-14T13:16:29;87.81;38.24;99.85;;
72028;Laerm;59781;52.090;5.030;2023-05-14T13:18:55;42.60;38.38;57.73;;
72028;Laerm;59781;52.090;5.030;2023-05-14T13:21:21;48.14;38.99;61.91;;
72028;Laerm;59781;52.090;5.030;2023-05-14T13:23:47;43.74;38.37;61.29;;
72028;Laerm;59781;52.090;5.030;2023-05-14T13:26:14;54.78;39.05;77.97;;
72028;Laerm;59781;52.090;5.030;2023-05-14T13:28:40;43.38;38.71;60.23;;
72028;Laerm;59781;52.090;5.030;2023-05-14T13:31:09;41.79;37.99;56.98;;
72028;Laerm;59781;52.090;5.030;2023-05-14T13:33:41;46.83;38.50;63.50;;
72028;Laerm;59781;52.090;5.030;2023-05-14T13:36:09;41.91;37.72;62.71;;
72028;Laerm;59781;52.090;5.030;2023-05-14T13:38:36;45.09;38.03;54.90;;
72028;Laerm;59781;52.090;5.030;2023-05-14T13:41:02;48.46;38.02;66.40;;
72028;Laerm;59781;52.090;5.030;2023-05-14T13:43:34;41.71;37.73;58.49;;
72028;Laerm;59781;52.090;5.030;2023-05-14T13:46:01;42.01;38.03;68.23;;
72028;Laerm;59781;52.090;5.030;2023-05-14T13:48:27;41.03;38.06;51.07;;
72028;Laerm;59781;52.090;5.030;2023-05-14T13:50:53;44.67;37.99;62.67;;
72028;Laerm;59781;52.090;5.030;2023-05-14T13:53:21;46.29;39.22;63.12;;
72028;Laerm;59781;52.090;5.030;2023-05-14T13:55:49;47.96;38.17;68.30;;